Time;durP1;ratioP1;P1;durP2;ratioP2;P2;SDS_P1;SDS_P2;PMS_P1;PMS_P2;Temp;Humidity;BMP_temperature;BMP_pressure;BME280_temperature;BME280_humidity;BME280_pressure;Samples;Min_cycle;Max_cycle;Signal;HPM_P1;HPM_P2
2022/02/08 00:01:20;;;;;;;9.50;3.77;;;0.90;96.30;;;;;;5032949;28;20476;-75
2022/02/08 00:03:45;;;;;;;13.27;3.07;;;0.80;96.30;;;;;;5033087;28;20407;-75
2022/02/08 00:06:29;;;;;;;10.37;4.73;;;0.90;96.30;;;;;;5015329;28;20461;-75
2022/02/08 00:08:54;;;;;;;10.10;3.80;;;0.90;96.30;;;;;;5032774;28;20176;-75
2022/02/08 00:11:20;;;;;;;10.00;3.43;;;0.90;96.30;;;;;;5014846;28;20496;-75
2022/02/08 00:13:46;;;;;;;14.17;3.03;;;0.90;96.30;;;;;;5032801;28;20241;-75
2022/02/08 00:16:12;;;;;;;18.40;3.60;;;0.90;96.30;;;;;;5032477;28;20203;-76
2022/02/08 00:18:37;;;;;;;8.40;3.70;;;0.90;96.30;;;;;;5032712;28;20962;-76
2022/02/08 00:21:03;;;;;;;23.70;3.77;;;0.90;96.30;;;;;;5032697;28;20593;-75
2022/02/08 00:23:28;;;;;;;10.23;3.93;;;0.90;96.30;;;;;;5032682;28;20180;-75
2022/02/08 00:25:54;;;;;;;16.50;3.50;;;0.90;96.30;;;;;;5032131;28;20262;-75
2022/02/08 00:28:19;;;;;;;10.10;3.50;;;0.90;96.30;;;;;;5032640;28;20176;-75
2022/02/08 00:30:45;;;;;;;11.67;3.87;;;0.90;96.30;;;;;;5032686;28;20282;-75
2022/02/08 00:33:10;;;;;;;14.97;3.33;;;0.90;96.30;;;;;;5014827;28;20690;-75
2022/02/08 00:35:36;;;;;;;11.00;3.60;;;0.90;96.30;;;;;;5020151;28;20654;-76
2022/02/08 00:38:02;;;;;;;11.07;3.83;;;;;;;;;;5032302;28;20187;-75
2022/02/08 00:40:27;;;;;;;15.43;3.87;;;0.90;96.30;;;;;;5032412;28;20227;-73
2022/02/08 00:42:53;;;;;;;5.47;3.13;;;0.90;96.30;;;;;;5014871;28;20171;-72
2022/02/08 00:45:46;;;;;;;12.93;3.93;;;0.90;96.30;;;;;;5032361;28;20172;-72
2022/02/08 00:48:19;;;;;;;10.37;3.70;;;0.90;96.30;;;;;;5032326;28;20856;-74
2022/02/08 00:50:50;;;;;;;7.50;3.03;;;0.80;96.30;;;;;;5032409;28;20446;-73
2022/02/08 00:53:17;;;;;;;7.37;2.77;;;0.80;96.30;;;;;;5014629;28;20454;-73
2022/02/08 00:55:42;;;;;;;5.67;3.27;;;0.90;96.30;;;;;;5032025;28;20439;-74
2022/02/08 00:58:08;;;;;;;7.23;2.90;;;0.80;96.30;;;;;;5014890;28;20451;-72
2022/02/08 05:02:25;;;;;;;8.40;2.43;;;0.90;96.30;;;;;;5299659;22;20494;-78
2022/02/08 05:44:09;;;;;;;9.67;2.67;;;;;;;;;;5035669;28;20462;-71
2022/02/08 05:46:49;;;;;;;12.10;2.50;;;1.10;96.30;;;;;;5049125;28;20810;-72
2022/02/08 05:49:23;;;;;;;9.60;1.93;;;1.20;96.30;;;;;;5055144;28;20402;-71
2022/02/08 05:54:15;;;;;;;7.13;2.17;;;1.20;96.30;;;;;;5054191;28;20838;-72
2022/02/08 05:56:40;;;;;;;4.87;1.47;;;1.30;96.30;;;;;;5053910;28;20421;-72
2022/02/08 05:59:08;;;;;;;4.03;1.67;;;1.30;96.30;;;;;;5047778;28;20606;-70
2022/02/08 06:01:34;;;;;;;7.20;1.97;;;1.30;96.30;;;;;;5053554;28;20167;-71
2022/02/08 06:04:00;;;;;;;8.83;2.27;;;1.40;96.30;;;;;;5054072;28;20516;-72
2022/02/08 06:06:27;;;;;;;5.67;1.60;;;1.40;96.30;;;;;;5054345;28;20899;-71
2022/02/08 06:08:53;;;;;;;8.93;4.40;;;1.40;96.30;;;;;;5051849;28;20412;-71
2022/02/08 06:11:19;;;;;;;8.90;1.33;;;1.40;96.30;;;;;;5054548;28;20492;-72
2022/02/08 06:13:50;;;;;;;7.27;2.30;;;1.50;96.30;;;;;;5053104;28;20188;-72
2022/02/08 06:16:18;;;;;;;6.10;1.90;;;1.50;96.30;;;;;;5052942;28;20619;-72
2022/02/08 06:18:44;;;;;;;6.50;1.90;;;1.40;96.30;;;;;;5054597;28;20446;-71
2022/02/08 06:21:09;;;;;;;9.17;1.43;;;1.40;96.30;;;;;;5048451;28;20470;-72
2022/02/08 06:23:35;;;;;;;2.50;1.60;;;1.40;96.30;;;;;;5034581;28;20192;-72
2022/02/08 06:26:00;;;;;;;6.77;1.73;;;1.40;96.30;;;;;;5043901;28;20206;-72
2022/02/08 06:28:26;;;;;;;7.60;2.23;;;1.40;96.30;;;;;;5045240;28;20313;-72
2022/02/08 06:30:52;;;;;;;2.40;1.53;;;1.40;96.30;;;;;;5045805;28;20542;-72
2022/02/08 06:33:21;;;;;;;4.00;1.43;;;1.40;96.30;;;;;;5051897;28;20219;-72
2022/02/08 06:35:47;;;;;;;7.40;1.93;;;;;;;;;;5028526;28;20180;-72
2022/02/08 06:38:15;;;;;;;6.63;1.30;;;1.40;96.30;;;;;;5034150;28;20805;-71
2022/02/08 06:40:42;;;;;;;3.13;1.40;;;1.50;96.30;;;;;;5045068;28;20422;-72
2022/02/08 06:43:08;;;;;;;6.67;1.30;;;1.40;96.30;;;;;;5045447;28;20512;-72
2022/02/08 06:45:34;;;;;;;4.53;1.00;;;1.40;96.30;;;;;;5050631;28;20528;-72
2022/02/08 06:48:02;;;;;;;7.20;1.93;;;1.40;96.30;;;;;;5053812;28;20448;-73
2022/02/08 06:50:28;;;;;;;4.00;1.50;;;1.30;96.30;;;;;;5054595;28;20508;-72
2022/02/08 06:52:54;;;;;;;4.13;2.10;;;;;;;;;;5053848;28;20556;-72
2022/02/08 06:55:20;;;;;;;3.93;1.60;;;1.20;96.30;;;;;;5054083;28;20217;-72
2022/02/08 06:57:51;;;;;;;7.33;1.47;;;1.10;96.30;;;;;;5052953;28;20426;-72
2022/02/08 07:00:21;;;;;;;5.20;1.60;;;1.10;96.30;;;;;;5054165;28;20650;-72
2022/02/08 07:02:47;;;;;;;3.20;1.40;;;1.20;96.30;;;;;;5054394;28;20750;-72
2022/02/08 07:59:36;;;;;;;3.20;1.00;;;1.90;96.30;;;;;;5077270;23;20488;-71
2022/02/08 08:02:02;;;;;;;3.37;2.00;;;2.00;96.30;;;;;;5053202;28;20406;-72
2022/02/08 08:07:03;;;;;;;3.90;1.33;;;2.00;96.30;;;;;;5355241;23;20239;-72
2022/02/08 08:09:28;;;;;;;6.90;1.83;;;2.10;96.30;;;;;;5052934;28;20897;-72
2022/02/08 08:11:55;;;;;;;8.03;1.80;;;2.20;96.30;;;;;;5052684;28;20655;-72
2022/02/08 08:14:23;;;;;;;5.90;1.63;;;2.30;96.30;;;;;;5063957;28;20190;-72
2022/02/08 08:16:57;;;;;;;3.73;1.53;;;2.40;96.30;;;;;;5072422;28;20408;-72
2022/02/08 08:19:36;;;;;;;4.53;1.77;;;;;;;;;;5071831;28;20429;-72
2022/02/08 08:22:02;;;;;;;7.20;2.00;;;2.50;96.30;;;;;;5072554;28;20389;-72
2022/02/08 08:24:28;;;;;;;2.40;1.17;;;2.60;96.30;;;;;;5072071;28;20429;-73
2022/02/08 08:26:53;;;;;;;5.83;2.10;;;2.60;96.30;;;;;;5072298;28;20416;-73
2022/02/08 08:29:19;;;;;;;6.03;2.10;;;2.60;96.30;;;;;;5072179;28;20228;-73
2022/02/08 08:31:44;;;;;;;4.90;1.73;;;2.60;96.30;;;;;;5072161;28;20642;-72
2022/02/08 08:34:10;;;;;;;6.73;1.30;;;2.60;96.30;;;;;;5072366;28;20187;-72
2022/02/08 08:36:36;;;;;;;4.07;1.77;;;2.60;96.30;;;;;;5072776;28;20166;-72
2022/02/08 08:39:03;;;;;;;3.33;1.73;;;2.60;96.30;;;;;;5036970;28;20414;-73
2022/02/08 08:49:30;;;;;;;5.33;1.50;;;2.80;96.30;;;;;;5072153;28;20938;-72
2022/02/08 08:51:56;;;;;;;3.03;1.07;;;2.80;96.30;;;;;;5071804;28;20471;-73
2022/02/08 08:54:22;;;;;;;3.77;1.40;;;2.80;96.30;;;;;;5071762;28;20429;-72
2022/02/08 08:56:49;;;;;;;3.50;1.40;;;2.80;96.30;;;;;;5069691;28;20949;-72
2022/02/08 08:59:16;;;;;;;7.10;1.80;;;2.90;96.30;;;;;;5070359;28;20175;-71
2022/02/08 09:01:42;;;;;;;4.63;1.20;;;2.90;96.30;;;;;;5070797;28;20490;-72
2022/02/08 09:04:08;;;;;;;2.67;1.20;;;;;;;;;;5071112;28;20429;-72
2022/02/08 09:06:35;;;;;;;5.07;2.10;;;2.90;96.30;;;;;;5071667;28;20527;-72
2022/02/08 09:09:10;;;;;;;3.47;2.20;;;2.90;96.30;;;;;;5071961;28;20401;-72
2022/02/08 09:14:10;;;;;;;4.40;1.67;;;2.90;96.30;;;;;;5071840;28;21134;-72
2022/02/08 09:17:16;;;;;;;1.80;1.20;;;3.00;96.30;;;;;;5071758;28;20915;-72
2022/02/08 09:19:46;;;;;;;8.97;2.90;;;3.00;96.30;;;;;;5070977;28;20450;-72
2022/02/08 09:22:29;;;;;;;4.87;1.40;;;;;;;;;;5071577;28;20880;-72
2022/02/08 09:25:04;;;;;;;2.30;1.27;;;2.90;96.30;;;;;;5064210;28;20437;-72
2022/02/08 09:27:48;;;;;;;2.83;1.60;;;2.90;96.30;;;;;;5053582;28;20504;-72
2022/02/08 09:30:17;;;;;;;3.93;1.77;;;2.90;96.30;;;;;;5053721;28;20416;-73
2022/02/08 09:32:53;;;;;;;5.30;1.67;;;2.90;96.30;;;;;;5052979;28;20548;-74
2022/02/08 09:35:20;;;;;;;7.33;1.60;;;3.00;96.30;;;;;;5054281;28;20481;-73
2022/02/08 09:37:46;;;;;;;3.13;0.90;;;3.00;96.30;;;;;;5071534;28;20413;-74
2022/02/08 09:40:18;;;;;;;3.43;1.07;;;3.00;96.30;;;;;;5072468;28;20429;-74
2022/02/08 09:42:44;;;;;;;1.93;1.10;;;3.00;96.30;;;;;;5061292;28;20426;-74
2022/02/08 09:45:14;;;;;;;1.63;1.07;;;2.90;96.30;;;;;;5062138;28;20439;-73
2022/02/08 09:47:57;;;;;;;3.33;1.43;;;2.90;96.30;;;;;;5063540;28;20448;-74
2022/02/08 09:50:27;;;;;;;3.90;1.40;;;2.90;96.30;;;;;;5053461;28;20413;-74
2022/02/08 09:52:57;;;;;;;6.10;1.27;;;2.90;96.30;;;;;;5071287;28;20536;-73
2022/02/08 09:55:23;;;;;;;2.20;1.30;;;2.80;96.30;;;;;;5053133;28;20507;-73
2022/02/08 09:57:50;;;;;;;2.57;1.40;;;2.80;96.30;;;;;;5071400;28;20745;-72
2022/02/08 10:00:18;;;;;;;7.07;2.10;;;2.90;96.30;;;;;;5071466;28;20920;-73
2022/02/08 10:02:43;;;;;;;3.57;1.50;;;2.90;96.30;;;;;;5071491;28;20397;-72
2022/02/08 10:05:09;;;;;;;4.10;1.30;;;3.00;96.30;;;;;;5071136;28;20440;-73
2022/02/08 10:07:36;;;;;;;2.10;1.10;;;3.00;96.30;;;;;;5071440;28;20190;-72
2022/02/08 10:10:05;;;;;;;5.50;1.33;;;3.10;96.30;;;;;;5070529;28;20269;-72
2022/02/08 10:13:31;;;;;;;3.00;1.20;;;3.20;96.30;;;;;;5075107;28;20484;-71
2022/02/08 10:19:00;;;;;;;4.30;1.03;;;3.50;96.30;;;;;;5075337;28;20443;-71
2022/02/08 10:23:51;;;;;;;2.57;1.30;;;3.70;96.30;;;;;;5071886;28;20529;-71
2022/02/08 10:26:41;;;;;;;2.27;1.30;;;3.80;96.30;;;;;;5071743;28;20497;-72
2022/02/08 10:29:57;;;;;;;2.00;1.00;;;3.90;96.30;;;;;;5047423;28;20517;-72
2022/02/08 10:37:35;;;;;;;1.67;1.13;;;4.00;96.30;;;;;;5053870;28;20458;-72
2022/02/08 10:38:06;;;;;;;1.57;0.87;;;4.00;96.30;;;;;;5070997;28;20424;-72
2022/02/08 10:40:36;;;;;;;1.67;1.07;;;4.10;96.30;;;;;;5036565;28;20409;-71
2022/02/08 10:43:04;;;;;;;2.40;1.20;;;3.90;96.30;;;;;;5040470;28;20479;-72
2022/02/08 10:45:35;;;;;;;2.43;1.50;;;3.90;96.30;;;;;;5036272;28;20501;-72
2022/02/08 10:48:07;;;;;;;2.50;1.13;;;3.90;96.30;;;;;;5054340;28;20410;-71
2022/02/08 10:50:39;;;;;;;2.33;1.00;;;3.90;96.30;;;;;;5054462;28;20793;-70
2022/02/08 10:53:07;;;;;;;2.20;1.30;;;3.80;96.30;;;;;;5054191;28;20510;-71
2022/02/08 10:58:20;;;;;;;3.57;1.10;;;3.90;96.30;;;;;;5074052;28;20454;-70
2022/02/08 11:01:04;;;;;;;1.30;0.83;;;3.90;96.30;;;;;;5066006;28;20412;-71
2022/02/08 11:03:37;;;;;;;2.50;0.90;;;4.10;96.30;;;;;;5074124;28;20444;-70
2022/02/08 11:09:07;;;;;;;1.70;0.90;;;4.20;96.30;;;;;;5069828;28;20436;-70
2022/02/08 11:11:56;;;;;;;1.80;1.00;;;4.20;96.30;;;;;;5054095;28;20464;-71
2022/02/08 11:14:40;;;;;;;2.00;0.90;;;4.30;96.30;;;;;;5053759;28;20430;-70
2022/02/08 11:20:33;;;;;;;5.10;1.30;;;4.30;96.30;;;;;;5054218;28;20549;-70
2022/02/08 11:27:57;;;;;;;4.73;1.10;;;4.50;96.30;;;;;;5053896;28;20928;-71
2022/02/08 11:30:28;;;;;;;2.00;0.90;;;4.60;96.30;;;;;;5053632;28;21015;-70
2022/02/08 11:33:08;;;;;;;1.40;0.80;;;;;;;;;;5035537;28;20458;-70
2022/02/08 11:49:52;;;;;;;1.23;0.83;;;5.00;96.30;;;;;;5073541;28;20416;-71
2022/02/08 11:58:09;;;;;;;1.10;0.90;;;5.10;96.30;;;;;;5062530;28;20421;-70
2022/02/08 12:00:56;;;;;;;2.50;0.90;;;5.00;96.30;;;;;;5063637;28;20394;-72
2022/02/08 12:03:45;;;;;;;2.30;0.90;;;5.20;96.30;;;;;;5072376;28;20437;-71
2022/02/08 12:06:49;;;;;;;3.00;0.80;;;5.10;96.30;;;;;;5066958;28;20433;-72
2022/02/08 12:09:08;;;;;;;1.83;0.70;;;5.10;96.30;;;;;;5048545;28;20418;-72
2022/02/08 12:12:29;;;;;;;1.97;0.90;;;5.00;96.30;;;;;;5054633;28;20421;-72
2022/02/08 12:33:22;;;;;;;1.00;0.77;;;5.00;96.30;;;;;;5054544;28;20469;-73
2022/02/08 12:36:12;;;;;;;1.10;0.90;;;5.00;96.30;;;;;;5059230;28;20424;-71
2022/02/08 12:57:37;;;;;;;1.53;0.83;;;4.90;96.30;;;;;;5590869;23;20485;-71
2022/02/08 13:00:19;;;;;;;1.27;0.73;;;4.90;96.30;;;;;;5052210;28;20409;-70
2022/02/08 14:21:35;;;;;;;2.17;1.30;;;4.80;96.30;;;;;;5025199;28;20833;-72
2022/02/08 14:32:30;;;;;;;1.30;1.10;;;4.70;96.30;;;;;;5069230;23;20509;-72
2022/02/08 15:09:37;;;;;;;4.20;1.10;;;4.60;96.30;;;;;;5033997;28;20413;-71
2022/02/08 15:14:44;;;;;;;2.40;1.10;;;4.70;96.30;;;;;;5034017;28;20493;-70
2022/02/08 15:17:09;;;;;;;2.03;1.20;;;4.60;96.30;;;;;;5033735;28;20457;-71
2022/02/08 15:19:37;;;;;;;5.03;1.40;;;4.60;96.30;;;;;;5033385;28;20407;-71
2022/02/08 15:22:04;;;;;;;2.60;1.40;;;4.60;96.30;;;;;;5033553;28;20203;-71
2022/02/08 15:24:29;;;;;;;6.00;1.87;;;4.60;96.30;;;;;;5033402;28;20430;-71
2022/02/08 15:26:55;;;;;;;6.20;1.60;;;4.60;96.30;;;;;;5033509;28;20819;-71
2022/02/08 15:29:20;;;;;;;1.50;1.20;;;4.60;96.30;;;;;;5033642;28;20196;-71
2022/02/08 15:31:46;;;;;;;1.60;1.20;;;4.50;96.30;;;;;;5032386;28;20655;-71
2022/02/08 15:34:12;;;;;;;1.70;1.20;;;4.60;96.30;;;;;;5032201;28;20200;-71
2022/02/08 15:36:38;;;;;;;3.00;1.43;;;4.60;96.30;;;;;;5033343;28;20219;-71
2022/02/08 15:39:08;;;;;;;2.60;1.20;;;4.60;96.30;;;;;;5032319;28;20176;-71
2022/02/08 15:41:39;;;;;;;4.50;1.27;;;4.60;96.30;;;;;;5033468;28;20391;-71
2022/02/08 15:44:11;;;;;;;2.70;1.20;;;4.60;96.30;;;;;;5033218;28;20441;-71
2022/02/08 15:46:37;;;;;;;2.57;1.40;;;4.60;96.30;;;;;;5031515;28;20423;-71
2022/02/08 15:49:02;;;;;;;2.83;1.50;;;4.60;96.30;;;;;;5033422;28;20457;-71
2022/02/08 15:51:38;;;;;;;1.90;1.20;;;4.50;96.30;;;;;;5031917;28;20183;-71
2022/02/08 15:55:12;;;;;;;1.30;1.20;;;4.50;96.30;;;;;;5031482;28;20708;-71
2022/02/08 16:00:21;;;;;;;1.67;1.40;;;4.50;96.30;;;;;;5026448;28;20498;-71
2022/02/08 16:07:46;;;;;;;1.77;1.50;;;4.50;96.30;;;;;;5032543;28;20427;-71
2022/02/08 16:10:24;;;;;;;3.37;1.27;;;4.50;96.30;;;;;;5032582;28;20199;-72
2022/02/08 16:13:13;;;;;;;2.47;1.57;;;4.60;96.30;;;;;;5034590;28;20465;-71
2022/02/08 16:16:04;;;;;;;2.90;1.60;;;4.60;96.30;;;;;;5046031;28;20398;-70
2022/02/08 16:18:36;;;;;;;3.73;1.80;;;4.60;96.30;;;;;;5031935;28;20419;-71
2022/02/08 16:21:23;;;;;;;3.10;1.87;;;4.60;96.30;;;;;;5032347;28;20418;-71
2022/02/08 16:27:12;;;;;;;2.93;1.80;;;4.50;96.30;;;;;;5010469;28;20419;-72
2022/02/08 16:32:36;;;;;;;4.20;1.87;;;4.60;96.30;;;;;;5012933;28;20939;-72
2022/02/08 16:59:16;;;;;;;4.20;2.57;;;4.60;96.30;;;;;;5032501;28;20434;-76
2022/02/08 17:01:41;;;;;;;3.47;2.03;;;4.60;96.30;;;;;;5032264;28;20813;-76
2022/02/08 17:04:09;;;;;;;3.20;2.30;;;4.60;96.30;;;;;;5040113;28;20977;-76
2022/02/08 17:06:34;;;;;;;4.93;2.47;;;4.60;96.30;;;;;;5034668;28;20172;-77
2022/02/08 17:09:06;;;;;;;2.90;2.50;;;4.60;96.30;;;;;;5032184;28;20750;-76
2022/02/08 17:11:39;;;;;;;5.93;2.37;;;4.60;96.30;;;;;;5032018;28;20177;-77
2022/02/08 17:17:03;;;;;;;4.80;2.27;;;4.70;96.30;;;;;;5031783;28;20423;-77
2022/02/08 17:34:35;;;;;;;2.57;2.20;;;4.60;96.30;;;;;;5034633;28;20258;-78
2022/02/08 17:37:05;;;;;;;2.90;2.33;;;4.60;96.30;;;;;;5019600;28;20506;-77
2022/02/08 17:46:40;;;;;;;3.60;2.33;;;4.50;96.30;;;;;;5011824;28;20407;-77
2022/02/08 17:49:05;;;;;;;3.00;1.73;;;4.60;96.30;;;;;;5012050;28;20502;-77
2022/02/08 17:51:31;;;;;;;2.43;2.00;;;4.50;96.30;;;;;;5012064;28;20435;-76
2022/02/08 17:53:56;;;;;;;4.23;2.67;;;4.50;96.30;;;;;;5030298;28;20211;-77
2022/02/08 17:56:22;;;;;;;5.70;4.00;;;4.50;96.30;;;;;;5021086;28;20185;-77
2022/02/08 17:58:49;;;;;;;3.20;2.33;;;4.50;96.30;;;;;;5011892;28;20633;-77
2022/02/08 18:01:14;;;;;;;5.97;4.77;;;4.50;96.30;;;;;;5030360;28;20169;-78
2022/02/08 18:03:40;;;;;;;3.20;2.90;;;;;;;;;;5032164;28;20504;-79
2022/02/08 18:06:06;;;;;;;4.77;3.73;;;4.50;96.30;;;;;;5029306;28;20172;-77
2022/02/08 18:08:33;;;;;;;2.63;2.20;;;4.50;96.30;;;;;;5031268;28;20411;-77
2022/02/08 18:10:59;;;;;;;3.47;2.33;;;4.40;96.30;;;;;;5031385;28;20255;-77
2022/02/08 18:13:28;;;;;;;6.13;3.00;;;4.40;96.30;;;;;;5034819;28;21048;-79
2022/02/08 18:15:53;;;;;;;3.73;2.50;;;4.40;96.30;;;;;;5030748;28;20199;-78
2022/02/08 18:18:26;;;;;;;2.47;2.27;;;4.40;96.30;;;;;;5030095;28;20778;-79
2022/02/08 18:20:56;;;;;;;3.83;2.80;;;4.30;96.30;;;;;;5030155;28;20200;-77
2022/02/08 19:03:34;;;;;;;3.30;1.57;;;4.40;96.30;;;;;;5035858;28;20808;-80
2022/02/08 19:17:00;;;;;;;2.03;1.87;;;4.50;96.30;;;;;;5028406;28;20765;-81
2022/02/08 19:19:47;;;;;;;4.43;2.10;;;4.50;96.30;;;;;;5012365;28;20411;-77
2022/02/08 19:22:16;;;;;;;2.97;2.33;;;4.50;96.30;;;;;;5013805;28;20403;-79
2022/02/08 19:24:42;;;;;;;2.00;1.80;;;4.40;96.30;;;;;;5013407;28;20444;-78
2022/02/08 19:27:08;;;;;;;3.10;1.77;;;4.50;96.30;;;;;;5031314;28;20437;-79
2022/02/08 19:29:35;;;;;;;3.93;3.20;;;4.50;96.30;;;;;;5033360;28;20895;-78
2022/02/08 19:32:03;;;;;;;6.13;5.43;;;4.50;96.30;;;;;;5031811;28;20223;-77
2022/02/08 19:34:29;;;;;;;8.63;1.97;;;4.50;96.30;;;;;;5032446;28;20437;-77
2022/02/08 19:36:57;;;;;;;5.20;2.93;;;4.50;96.30;;;;;;5030748;28;20530;-76
2022/02/08 19:39:23;;;;;;;2.40;2.17;;;4.50;96.30;;;;;;5035729;28;20243;-76
2022/02/08 19:41:48;;;;;;;2.47;2.27;;;4.50;96.30;;;;;;5035305;28;20462;-76
2022/02/08 21:57:22;;;;;;;3.43;1.50;;;4.50;96.30;;;;;;5520444;23;20486;-79
2022/02/08 21:59:48;;;;;;;1.50;1.40;;;4.50;96.30;;;;;;5030461;28;20422;-78
2022/02/08 22:02:14;;;;;;;1.60;1.50;;;4.60;96.30;;;;;;5031233;28;20529;-80
2022/02/08 22:04:40;;;;;;;1.77;1.17;;;4.60;96.30;;;;;;5030445;28;20194;-80
2022/02/08 22:07:11;;;;;;;2.70;1.57;;;4.60;96.30;;;;;;5032623;28;20215;-80
2022/02/08 22:09:37;;;;;;;1.87;1.67;;;4.60;96.30;;;;;;5033754;28;20425;-79
2022/02/08 22:18:18;;;;;;;2.33;1.30;;;4.60;96.30;;;;;;5035656;28;20405;-81
2022/02/08 22:20:44;;;;;;;1.53;1.43;;;4.60;96.30;;;;;;5034898;28;20430;-79
2022/02/08 22:23:22;;;;;;;1.50;1.40;;;4.60;96.30;;;;;;5033617;28;20473;-80
2022/02/08 22:26:09;;;;;;;1.37;1.27;;;4.60;96.30;;;;;;5033535;28;20414;-79
2022/02/08 22:31:15;;;;;;;2.10;1.53;;;4.70;96.30;;;;;;5034982;28;20402;-80
2022/02/08 22:33:47;;;;;;;2.57;1.93;;;4.70;96.30;;;;;;5033516;28;20455;-80
2022/02/08 22:36:18;;;;;;;1.50;1.40;;;4.70;96.30;;;;;;5033861;28;20407;-79
2022/02/08 22:39:01;;;;;;;1.57;1.47;;;4.70;96.30;;;;;;5033361;28;20413;-80
2022/02/08 22:41:40;;;;;;;6.47;1.57;;;4.70;96.30;;;;;;5033741;28;20785;-80
2022/02/08 22:44:16;;;;;;;1.77;1.60;;;4.70;96.30;;;;;;5033787;28;20435;-79
2022/02/08 22:46:42;;;;;;;1.70;1.60;;;4.80;96.30;;;;;;5033470;28;20405;-80
2022/02/08 22:49:07;;;;;;;1.70;1.43;;;4.70;96.30;;;;;;5033172;28;20418;-80
2022/02/08 22:51:33;;;;;;;1.67;1.50;;;4.70;96.30;;;;;;5033317;28;20245;-81
2022/02/08 22:53:58;;;;;;;2.03;1.73;;;4.70;96.30;;;;;;5032963;28;20862;-80
2022/02/08 22:56:27;;;;;;;4.07;1.90;;;4.70;96.30;;;;;;5031921;28;20840;-80
2022/02/08 22:58:53;;;;;;;1.87;1.40;;;4.70;96.30;;;;;;5033225;28;20175;-80
2022/02/08 23:01:19;;;;;;;1.67;1.57;;;4.80;96.30;;;;;;5034278;28;20395;-80
2022/02/08 23:03:44;;;;;;;2.30;1.50;;;4.70;96.30;;;;;;5033250;28;20629;-81
2022/02/08 23:06:10;;;;;;;1.63;1.53;;;;;;;;;;5032871;28;20469;-81
2022/02/08 23:08:36;;;;;;;1.30;1.07;;;4.80;96.30;;;;;;5033336;28;20203;-80
2022/02/08 23:11:27;;;;;;;3.03;2.10;;;4.70;96.30;;;;;;5034443;28;20415;-80
2022/02/08 23:13:53;;;;;;;1.83;1.50;;;4.70;96.30;;;;;;5034548;28;20478;-80
2022/02/08 23:16:41;;;;;;;2.67;1.90;;;4.70;96.30;;;;;;5032927;28;20411;-81
2022/02/08 23:38:16;;;;;;;1.87;1.67;;;4.80;96.30;;;;;;5033817;28;20446;-81
2022/02/08 23:40:42;;;;;;;2.13;1.70;;;4.70;96.30;;;;;;5033541;28;20406;-78
2022/02/08 23:43:07;;;;;;;3.40;1.90;;;4.80;96.30;;;;;;5033723;28;20215;-77
2022/02/08 23:45:34;;;;;;;3.20;1.70;;;4.70;96.30;;;;;;5032237;28;20179;-77
2022/02/08 23:48:07;;;;;;;1.70;1.60;;;4.70;96.30;;;;;;5033620;28;20176;-77
2022/02/08 23:50:40;;;;;;;2.30;1.60;;;4.70;96.30;;;;;;5033610;28;20395;-77
2022/02/08 23:53:21;;;;;;;2.50;1.87;;;4.70;96.30;;;;;;5032136;28;20446;-78
2022/02/08 23:55:54;;;;;;;2.10;1.73;;;4.70;96.30;;;;;;5030933;28;20477;-79
2022/02/08 23:58:20;;;;;;;2.00;1.73;;;4.80;96.30;;;;;;5034477;28;20926;-80
